createdAt,value
2024-04-25T00:04:58.584Z,7.07
2024-04-25T00:10:00.452Z,6.92
2024-04-25T00:15:02.309Z,6.94
2024-04-25T00:20:05.671Z,6.85
2024-04-25T00:25:08.863Z,6.90
2024-04-25T00:30:11.000Z,6.96
2024-04-25T00:35:12.842Z,6.86
2024-04-25T00:40:14.699Z,6.79
2024-04-25T00:45:16.765Z,6.60
2024-04-25T00:50:19.811Z,6.54
2024-04-25T00:55:21.757Z,6.57
2024-04-25T01:00:25.074Z,6.63
2024-04-25T01:05:28.753Z,6.69
2024-04-25T01:10:30.628Z,6.69
2024-04-25T01:15:32.623Z,6.63
2024-04-25T01:20:36.367Z,6.64
2024-04-25T01:25:39.767Z,6.72
2024-04-25T01:30:41.972Z,6.70
2024-04-25T01:35:46.458Z,6.74
2024-04-25T01:40:48.324Z,6.61
2024-04-25T01:45:50.197Z,6.66
2024-04-25T01:50:52.015Z,6.64
2024-04-25T01:55:54.826Z,6.61
2024-04-25T02:00:56.827Z,6.58
2024-04-25T02:05:59.122Z,6.64
2024-04-25T02:11:01.056Z,6.75
2024-04-25T02:16:03.099Z,6.76
2024-04-25T02:21:23.686Z,6.57
2024-04-25T02:26:25.544Z,6.53
2024-04-25T02:31:33.043Z,6.53
2024-04-25T02:36:37.512Z,6.56
2024-04-25T02:41:39.393Z,6.61
2024-04-25T02:46:41.232Z,6.64
2024-04-25T02:51:43.151Z,6.71
2024-04-25T02:56:45.098Z,6.74
2024-04-25T03:01:46.929Z,6.72
2024-04-25T03:06:48.785Z,6.72
2024-04-25T03:11:50.667Z,6.69
2024-04-25T03:16:52.566Z,6.59
2024-04-25T03:21:54.420Z,6.54
2024-04-25T03:26:56.263Z,6.64
2024-04-25T03:31:58.112Z,6.63
2024-04-25T03:37:00.039Z,6.54
2024-04-25T03:42:03.312Z,6.48
2024-04-25T03:47:05.311Z,6.59
2024-04-25T03:52:07.369Z,6.60
2024-04-25T03:57:09.288Z,6.60
2024-04-25T04:02:11.160Z,6.45
2024-04-25T04:07:12.986Z,6.39
2024-04-25T04:12:15.746Z,6.48
2024-04-25T04:17:17.628Z,6.53
2024-04-25T04:22:19.447Z,6.55
2024-04-25T04:27:21.307Z,6.58
2024-04-25T04:32:25.110Z,6.65
2024-04-25T04:37:27.044Z,6.70
2024-04-25T04:42:29.347Z,6.73
2024-04-25T04:47:32.923Z,6.76
2024-04-25T04:52:35.492Z,6.80
2024-04-25T04:57:38.117Z,6.83
2024-04-25T05:02:40.591Z,6.91
2024-04-25T05:07:42.939Z,6.93
2024-04-25T05:12:44.956Z,6.94
2024-04-25T05:17:47.291Z,6.99
2024-04-25T05:22:49.731Z,7.08
2024-04-25T05:27:53.426Z,7.06
2024-04-25T05:32:55.890Z,7.04
2024-04-25T05:37:58.346Z,7.08
2024-04-25T05:43:00.816Z,7.11
2024-04-25T05:48:03.336Z,7.11
2024-04-25T05:53:06.163Z,7.09
2024-04-25T05:58:08.234Z,7.12
2024-04-25T06:03:10.546Z,7.14
2024-04-25T06:08:13.010Z,7.18
2024-04-25T06:13:15.323Z,7.42
2024-04-25T06:18:17.651Z,7.63
2024-04-25T06:23:19.660Z,7.86
2024-04-25T06:28:21.489Z,7.80
2024-04-25T06:33:23.386Z,7.54
2024-04-25T06:38:25.268Z,7.29
2024-04-25T06:43:27.141Z,7.20
2024-04-25T06:48:29.741Z,7.27
2024-04-25T06:53:32.179Z,7.26
2024-04-25T06:58:34.202Z,7.28
2024-04-25T07:03:36.052Z,7.46
2024-04-25T07:08:38.101Z,7.71
2024-04-25T07:13:39.951Z,7.94
2024-04-25T07:18:42.169Z,8.03
2024-04-25T07:23:44.054Z,7.83
2024-04-25T07:28:45.928Z,7.42
2024-04-25T07:33:47.915Z,7.31
2024-04-25T07:38:50.307Z,7.15
2024-04-25T07:43:52.189Z,7.00
2024-04-25T07:48:54.513Z,6.88
2024-04-25T07:53:56.426Z,6.96
2024-04-25T07:58:58.685Z,7.05
2024-04-25T08:04:01.305Z,7.41
2024-04-25T08:09:03.818Z,7.64
2024-04-25T08:14:05.658Z,7.81
2024-04-25T08:19:07.959Z,7.94
2024-04-25T08:24:09.856Z,8.16
2024-04-25T08:29:11.795Z,8.36
2024-04-25T08:34:14.595Z,8.43
2024-04-25T08:39:16.524Z,8.60
2024-04-25T08:44:18.540Z,8.97
2024-04-25T08:49:24.080Z,9.25
2024-04-25T08:54:25.925Z,9.94
2024-04-25T08:59:27.936Z,10.15
2024-04-25T09:04:31.154Z,9.97
2024-04-25T09:09:33.115Z,9.87
2024-04-25T09:14:34.988Z,9.68
2024-04-25T09:19:36.931Z,9.36
2024-04-25T09:24:38.748Z,9.15
2024-04-25T09:29:42.089Z,8.90
2024-04-25T09:34:44.007Z,8.76
2024-04-25T09:39:51.797Z,9.26
2024-04-25T09:45:00.820Z,9.79
2024-04-25T09:50:15.125Z,10.52
2024-04-25T09:55:22.644Z,11.08
2024-04-25T10:00:25.310Z,11.42
2024-04-25T10:05:27.943Z,11.33
2024-04-25T10:10:29.936Z,10.69
2024-04-25T10:15:33.105Z,10.14
2024-04-25T10:20:34.967Z,9.97
2024-04-25T10:25:36.922Z,10.11
2024-04-25T10:30:38.731Z,10.30
2024-04-25T10:35:40.965Z,10.48
2024-04-25T10:40:42.846Z,10.64
2024-04-25T10:45:44.826Z,10.68
2024-04-25T10:50:46.917Z,10.69
2024-04-25T10:55:49.002Z,11.09
2024-04-25T11:00:50.860Z,11.24
2024-04-25T11:05:52.812Z,11.32
2024-04-25T11:10:54.694Z,11.54
2024-04-25T11:15:57.668Z,11.74
2024-04-25T11:21:00.405Z,11.75
2024-04-25T11:26:03.896Z,11.61
2024-04-25T11:31:07.574Z,11.49
2024-04-25T11:36:09.611Z,11.22
2024-04-25T11:41:11.503Z,11.17
2024-04-25T11:46:13.686Z,11.32
2024-04-25T11:51:15.565Z,11.05
2024-04-25T11:56:17.536Z,10.46
2024-04-25T12:01:19.599Z,10.40
2024-04-25T12:06:24.345Z,10.77
2024-04-25T12:11:30.363Z,11.12
2024-04-25T12:16:32.304Z,11.46
2024-04-25T12:21:34.346Z,11.93
2024-04-25T12:26:37.278Z,12.44
2024-04-25T12:31:39.270Z,12.51
2024-04-25T12:36:41.086Z,12.21
2024-04-25T12:41:42.989Z,12.57
2024-04-25T12:46:44.917Z,12.68
2024-04-25T12:51:46.795Z,12.67
2024-04-25T12:56:48.684Z,12.65
2024-04-25T13:01:50.733Z,12.79
2024-04-25T13:06:52.597Z,12.88
2024-04-25T13:11:54.558Z,13.11
2024-04-25T13:16:56.411Z,13.42
2024-04-25T13:21:58.257Z,13.57
2024-04-25T13:27:03.125Z,13.51
2024-04-25T13:32:08.196Z,13.15
2024-04-25T13:37:10.778Z,13.03
2024-04-25T13:42:13.623Z,13.14
2024-04-25T13:47:15.686Z,13.21
2024-04-25T13:52:17.592Z,13.15
2024-04-25T13:57:19.444Z,12.98
2024-04-25T14:02:21.346Z,12.94
2024-04-25T14:07:23.248Z,12.76
2024-04-25T14:12:28.628Z,12.35
2024-04-25T14:17:31.580Z,12.11
2024-04-25T14:22:36.361Z,12.08
2024-04-25T14:27:56.681Z,12.12
2024-04-25T14:32:58.632Z,12.19
2024-04-25T14:38:00.757Z,12.20
2024-04-25T14:43:02.720Z,12.15
2024-04-25T14:48:04.816Z,12.30
2024-04-25T14:53:08.349Z,12.24
2024-04-25T14:58:10.484Z,11.97
2024-04-25T15:03:12.899Z,11.66
2024-04-25T15:08:17.094Z,11.60
2024-04-25T15:13:23.725Z,11.50
2024-04-25T15:18:26.577Z,11.49
2024-04-25T15:23:28.834Z,11.57
2024-04-25T15:28:32.900Z,11.67
2024-04-25T15:33:36.848Z,11.58
2024-04-25T15:38:39.186Z,11.56
2024-04-25T15:43:41.268Z,11.30
2024-04-25T15:48:43.687Z,10.87
2024-04-25T15:53:45.679Z,10.74
2024-04-25T15:58:48.318Z,10.44
2024-04-25T16:03:50.851Z,10.37
2024-04-25T16:08:52.953Z,10.15
2024-04-25T16:13:55.899Z,10.13
2024-04-25T16:18:58.223Z,10.35
2024-04-25T16:24:00.269Z,10.61
2024-04-25T16:29:02.373Z,10.59
2024-04-25T16:34:04.861Z,10.39
2024-04-25T16:39:07.273Z,10.40
2024-04-25T16:44:09.513Z,10.51
2024-04-25T16:49:12.876Z,10.76
2024-04-25T16:54:15.215Z,10.87
2024-04-25T16:59:17.553Z,10.75
2024-04-25T17:04:19.653Z,10.54
2024-04-25T17:09:27.686Z,10.54
2024-04-25T17:14:31.796Z,10.23
2024-04-25T17:19:33.883Z,9.90
2024-04-25T17:24:36.035Z,9.57
2024-04-25T17:29:41.847Z,9.28
2024-04-25T17:34:44.547Z,8.99
2024-04-25T17:39:47.653Z,8.67
2024-04-25T17:44:51.938Z,8.59
2024-04-25T17:49:53.928Z,8.58
2024-04-25T17:55:00.751Z,8.53
2024-04-25T18:00:03.313Z,8.63
2024-04-25T18:05:07.109Z,8.79
2024-04-25T18:10:09.795Z,8.87
2024-04-25T18:15:12.055Z,8.71
2024-04-25T18:20:14.702Z,8.56
2024-04-25T18:25:16.815Z,8.47
2024-04-25T18:30:18.724Z,8.41
2024-04-25T18:35:20.671Z,8.42
2024-04-25T18:40:22.626Z,8.51
2024-04-25T18:45:24.773Z,8.44
2024-04-25T18:50:26.594Z,8.37
2024-04-25T18:55:28.483Z,8.44
2024-04-25T19:00:30.767Z,8.42
2024-04-25T19:05:32.788Z,8.36
2024-04-25T19:10:34.691Z,8.44
2024-04-25T19:15:36.706Z,8.46
2024-04-25T19:20:39.069Z,8.44
2024-04-25T19:25:40.875Z,8.34
2024-04-25T19:30:42.821Z,8.29
2024-04-25T19:35:48.907Z,8.16
2024-04-25T19:40:50.950Z,8.04
2024-04-25T19:45:52.803Z,7.95
2024-04-25T19:50:54.803Z,8.01
2024-04-25T19:55:57.130Z,8.11
2024-04-25T20:00:58.966Z,8.00
2024-04-25T20:06:02.622Z,7.90
2024-04-25T20:11:04.685Z,7.82
2024-04-25T20:16:06.849Z,7.79
2024-04-25T20:21:09.459Z,7.83
2024-04-25T20:26:12.608Z,7.87
2024-04-25T20:31:16.242Z,7.91
2024-04-25T20:36:18.208Z,8.00
2024-04-25T20:41:22.033Z,8.02
2024-04-25T20:46:24.385Z,8.02
2024-04-25T20:51:26.821Z,7.88
2024-04-25T20:56:28.789Z,7.75
2024-04-25T21:01:30.640Z,7.82
2024-04-25T21:06:32.570Z,7.90
2024-04-25T21:11:34.857Z,7.98
2024-04-25T21:16:44.232Z,7.99
2024-04-25T21:21:48.848Z,7.91
2024-04-25T21:26:50.851Z,7.95
2024-04-25T21:31:55.629Z,7.88
2024-04-25T21:36:57.506Z,7.89
2024-04-25T21:41:59.338Z,7.87
2024-04-25T21:47:01.190Z,7.77
2024-04-25T21:52:03.109Z,7.81
2024-04-25T21:57:05.129Z,7.86
2024-04-25T22:02:07.037Z,7.88
2024-04-25T22:07:08.926Z,7.83
2024-04-25T22:12:13.102Z,7.84
2024-04-25T22:17:15.178Z,7.89
2024-04-25T22:22:17.102Z,7.98
2024-04-25T22:27:19.051Z,8.09
2024-04-25T22:32:20.982Z,8.05
2024-04-25T22:37:22.856Z,8.02
2024-04-25T22:42:24.665Z,7.99
2024-04-25T22:47:26.871Z,7.94
2024-04-25T22:52:28.771Z,7.95
2024-04-25T22:57:30.664Z,7.95
2024-04-25T23:02:32.536Z,8.01
2024-04-25T23:07:39.762Z,7.95
2024-04-25T23:12:41.786Z,7.85
2024-04-25T23:17:43.981Z,7.85
2024-04-25T23:22:46.048Z,7.86
2024-04-25T23:27:47.859Z,7.85
2024-04-25T23:32:49.955Z,7.81
2024-04-25T23:37:51.992Z,7.88
2024-04-25T23:42:53.789Z,7.86
2024-04-25T23:47:55.846Z,7.91
2024-04-25T23:52:57.687Z,7.92
2024-04-25T23:57:59.528Z,7.99
